| time (UTC) | temp F | wind direction | speed MPH | gust MPH | rain 1hr in | rain 24hr in | rain mn in | humidity % | barometer mb |
| 20260509223213 | 50 | 126 | 2.0 | 7.0 | 0.00 | 0.00 | 0.00 | 84 | 1029.1 |
| 20260509221709 | 48 | 131 | 3.0 | 7.0 | 0.00 | 0.00 | 0.00 | 85 | 1029.0 |
| 20260509220211 | 47 | 0 | 3.0 | 8.0 | 0.00 | 0.00 | 0.00 | 85 | 1028.8 |
| 20260509214711 | 46 | 0 | 3.0 | 9.0 | 0.00 | 0.00 | 0.00 | 86 | 1028.6 |
| 20260509213211 | 45 | 0 | 3.0 | 8.0 | 0.00 | 0.00 | 0.00 | 86 | 1028.5 |
| 20260509211711 | 45 | 147 | 3.0 | 8.0 | 0.00 | 0.00 | 0.00 | 85 | 1028.4 |
| 20260509210217 | 45 | 0 | 3.0 | 11.0 | 0.00 | 0.00 | 0.00 | 85 | 1028.2 |
| 20260509204711 | 45 | 0 | 4.0 | 9.0 | 0.00 | 0.00 | 0.00 | 86 | 1028.0 |
| 20260509203201 | 44 | 155 | 3.0 | 7.0 | 0.00 | 0.00 | 0.00 | 85 | 1027.9 |
| 20260509201656 | 44 | 0 | 2.0 | 5.0 | 0.00 | 0.00 | 0.00 | 85 | 1027.7 |
| 20260509200153 | 44 | 0 | 3.0 | 5.0 | 0.00 | 0.00 | 0.00 | 85 | 1027.4 |
| 20260509194651 | 44 | 0 | 3.0 | 8.0 | 0.00 | 0.00 | 0.00 | 85 | 1027.4 |
| 20260509193153 | 45 | 0 | 2.0 | 8.0 | 0.00 | 0.00 | 0.00 | 85 | 1027.2 |
| 20260509191633 | 45 | 0 | 2.0 | 6.0 | 0.00 | 0.00 | 0.00 | 85 | 1027.0 |
| 20260509190128 | 45 | 0 | 2.0 | 5.0 | 0.00 | 0.00 | 0.00 | 85 | 1026.9 |
| 20260509184628 | 45 | 0 | 2.0 | 5.0 | 0.00 | 0.00 | 0.00 | 85 | 1026.7 |
| 20260509183129 | 45 | 0 | 2.0 | 5.0 | 0.00 | 0.00 | 0.00 | 85 | 1026.6 |
| 20260509181623 | 46 | 162 | 2.0 | 6.0 | 0.00 | 0.00 | 0.00 | 85 | 1026.4 |
| 20260509180113 | 46 | 0 | 2.0 | 6.0 | 0.00 | 0.00 | 0.00 | 85 | 1026.2 |
| 20260509174613 | 46 | 0 | 3.0 | 6.0 | 0.00 | 0.00 | 0.00 | 85 | 1026.2 |
| 20260509173112 | 46 | 146 | 3.0 | 7.0 | 0.00 | 0.00 | 0.00 | 85 | 1026.2 |
| 20260509171613 | 46 | 0 | 3.0 | 6.0 | 0.00 | 0.00 | 0.00 | 85 | 1026.2 |
| 20260509170121 | 46 | 0 | 3.0 | 8.0 | 0.00 | 0.00 | 0.00 | 85 | 1026.2 |
| 20260509164613 | 46 | 0 | 3.0 | 6.0 | 0.00 | 0.00 | 0.00 | 84 | 1026.2 |
| 20260509163112 | 47 | 0 | 2.0 | 5.0 | 0.00 | 0.00 | 0.00 | 84 | 1026.3 |
| 20260509161613 | 47 | 0 | 2.0 | 5.0 | 0.00 | 0.00 | 0.00 | 84 | 1026.4 |
| 20260509160113 | 47 | 0 | 2.0 | 6.0 | 0.00 | 0.00 | 0.00 | 84 | 1026.4 |
| 20260509154613 | 47 | 0 | 3.0 | 9.0 | 0.00 | 0.00 | 0.00 | 83 | 1026.3 |
| 20260509153112 | 48 | 140 | 2.0 | 7.0 | 0.00 | 0.00 | 0.00 | 84 | 1026.2 |
| 20260509151614 | 48 | 0 | 3.0 | 7.0 | 0.00 | 0.00 | 0.00 | 84 | 1026.2 |
| 20260509150112 | 48 | 162 | 3.0 | 9.0 | 0.00 | 0.00 | 0.00 | 84 | 1026.1 |
| 20260509144614 | 48 | 157 | 3.0 | 9.0 | 0.00 | 0.00 | 0.00 | 84 | 1026.1 |
| 20260509143111 | 48 | 169 | 3.0 | 7.0 | 0.00 | 0.00 | 0.00 | 83 | 1026.2 |
| 20260509141613 | 48 | 153 | 3.0 | 7.0 | 0.00 | 0.00 | 0.00 | 83 | 1026.3 |
| 20260509140109 | 49 | 163 | 4.0 | 8.0 | 0.00 | 0.00 | 0.00 | 83 | 1026.2 |
| 20260509134614 | 48 | 0 | 3.0 | 6.0 | 0.00 | 0.00 | 0.00 | 83 | 1026.5 |
| 20260509133111 | 48 | 150 | 3.0 | 7.0 | 0.00 | 0.00 | 0.00 | 83 | 1026.4 |
| 20260509131613 | 49 | 150 | 3.0 | 8.0 | 0.00 | 0.00 | 0.00 | 82 | 1026.4 |
| 20260509130111 | 49 | 150 | 3.0 | 7.0 | 0.00 | 0.00 | 0.00 | 83 | 1026.5 |
| 20260509124613 | 49 | 159 | 3.0 | 6.0 | 0.00 | 0.00 | 0.00 | 82 | 1026.5 |
| 20260509123111 | 49 | 173 | 3.0 | 6.0 | 0.00 | 0.00 | 0.00 | 82 | 1026.6 |
| 20260509121609 | 50 | 159 | 3.0 | 6.0 | 0.00 | 0.00 | 0.00 | 81 | 1026.6 |
| 20260509120112 | 50 | 144 | 3.0 | 6.0 | 0.00 | 0.00 | 0.00 | 82 | 1026.7 |
| 20260509114612 | 50 | 156 | 2.0 | 5.0 | 0.00 | 0.00 | 0.00 | 82 | 1026.7 |
| 20260509113111 | 50 | 135 | 1.0 | 3.0 | 0.00 | 0.00 | 0.00 | 81 | 1026.6 |
| 20260509111610 | 50 | 100 | 0.0 | 0.0 | 0.00 | 0.00 | 0.00 | 81 | 1026.5 |
| 20260509110111 | 50 | 98 | 0.0 | 0.0 | 0.00 | 0.00 | 0.00 | 81 | 1026.5 |
| 20260509104611 | 50 | 97 | 0.0 | 0.0 | 0.00 | 0.00 | 0.00 | 80 | 1026.5 |
| 20260509103111 | 51 | 97 | 0.0 | 0.0 | 0.00 | 0.00 | 0.00 | 79 | 1026.5 |
| 20260509101611 | 52 | 96 | 0.0 | 0.0 | 0.00 | 0.00 | 0.00 | 78 | 1026.2 |
| 20260509100120 | 52 | 0 | 0.0 | 2.0 | 0.00 | 0.00 | 0.00 | 77 | 1026.3 |
| 20260509094612 | 53 | 0 | 1.0 | 2.0 | 0.00 | 0.00 | 0.00 | 77 | 1025.9 |
| 20260509093112 | 54 | 0 | 0.0 | 2.0 | 0.00 | 0.00 | 0.00 | 75 | 1025.8 |
| 20260509091611 | 54 | 0 | 1.0 | 2.0 | 0.00 | 0.00 | 0.00 | 75 | 1025.7 |
| 20260509090109 | 55 | 96 | 0.0 | 0.0 | 0.00 | 0.00 | 0.00 | 73 | 1025.6 |
| 20260509084610 | 56 | 95 | 1.0 | 2.0 | 0.00 | 0.00 | 0.00 | 72 | 1025.4 |
| 20260509083110 | 57 | 95 | 0.0 | 2.0 | 0.00 | 0.00 | 0.00 | 71 | 1025.2 |
| 20260509081616 | 58 | 95 | 1.0 | 2.0 | 0.00 | 0.00 | 0.00 | 70 | 1025.1 |
| 20260509080111 | 59 | 95 | 1.0 | 2.0 | 0.00 | 0.00 | 0.00 | 68 | 1024.8 |
| 20260509074610 | 60 | 95 | 0.0 | 2.0 | 0.00 | 0.00 | 0.00 | 66 | 1024.8 |
| 20260509073109 | 61 | 95 | 1.0 | 4.0 | 0.00 | 0.00 | 0.00 | 65 | 1024.4 |
| 20260509071616 | 63 | 102 | 1.0 | 4.0 | 0.00 | 0.00 | 0.00 | 63 | 1024.4 |
| 20260509070045 | 64 | 0 | 1.0 | 6.0 | 0.00 | 0.00 | 0.00 | 61 | 1024.1 |
| 20260509064536 | 65 | 124 | 4.0 | 10.0 | 0.00 | 0.00 | 0.00 | 60 | 1023.8 |
| 20260509063034 | 66 | 126 | 5.0 | 10.0 | 0.00 | 0.00 | 0.00 | 58 | 1023.7 |
| 20260509061537 | 67 | 101 | 5.0 | 10.0 | 0.00 | 0.00 | 0.00 | 57 | 1023.5 |
| 20260509060035 | 68 | 107 | 5.0 | 13.0 | 0.00 | 0.00 | 0.00 | 55 | 1023.5 |
| 20260509054531 | 70 | 0 | 6.0 | 11.0 | 0.00 | 0.00 | 0.00 | 52 | 1023.2 |
| 20260509053029 | 73 | 63 | 0.0 | 3.0 | 0.00 | 0.00 | 0.00 | 43 | 1023.1 |
| 20260509051536 | 73 | 287 | 1.0 | 6.0 | 0.00 | 0.00 | 0.00 | 44 | 1022.9 |
| 20260509050017 | 72 | 213 | 1.0 | 4.0 | 0.00 | 0.00 | 0.00 | 45 | 1023.0 |
| 20260509044519 | 71 | 131 | 2.0 | 4.0 | 0.00 | 0.00 | 0.00 | 46 | 1023.0 |
| 20260509043019 | 70 | 106 | 1.0 | 3.0 | 0.00 | 0.00 | 0.00 | 49 | 1023.0 |
| 20260509041458 | 70 | 0 | 1.0 | 4.0 | 0.00 | 0.00 | 0.00 | 47 | 1022.9 |
| 20260509035933 | 70 | 0 | 2.0 | 6.0 | 0.00 | 0.00 | 0.00 | 47 | 1022.9 |
| 20260509034434 | 70 | 0 | 2.0 | 5.0 | 0.00 | 0.00 | 0.00 | 47 | 1023.1 |
| 20260509032927 | 71 | 0 | 2.0 | 9.0 | 0.00 | 0.00 | 0.00 | 46 | 1023.1 |
| 20260509031422 | 71 | 0 | 2.0 | 8.0 | 0.00 | 0.00 | 0.00 | 46 | 1023.3 |
| 20260509025923 | 70 | 193 | 2.0 | 7.0 | 0.00 | 0.00 | 0.00 | 47 | 1023.3 |
| 20260509024419 | 70 | 250 | 2.0 | 6.0 | 0.00 | 0.00 | 0.00 | 49 | 1023.5 |
| 20260509022919 | 70 | 215 | 3.0 | 6.0 | 0.00 | 0.00 | 0.00 | 46 | 1023.8 |
| 20260509021412 | 69 | 207 | 4.0 | 8.0 | 0.00 | 0.00 | 0.00 | 47 | 1024.0 |
| 20260509015910 | 69 | 115 | 2.0 | 9.0 | 0.00 | 0.00 | 0.00 | 47 | 1024.3 |
| 20260509014411 | 68 | 234 | 2.0 | 7.0 | 0.00 | 0.00 | 0.00 | 50 | 1024.4 |
| 20260509012909 | 68 | 172 | 4.0 | 8.0 | 0.00 | 0.00 | 0.00 | 51 | 1024.4 |
| 20260509011418 | 68 | 126 | 3.0 | 8.0 | 0.00 | 0.00 | 0.00 | 50 | 1024.8 |
| 20260509005917 | 68 | 219 | 3.0 | 6.0 | 0.00 | 0.00 | 0.00 | 52 | 1025.1 |
| 20260509004411 | 67 | 200 | 2.0 | 6.0 | 0.00 | 0.00 | 0.00 | 54 | 1025.2 |
| 20260509002910 | 66 | 146 | 2.0 | 9.0 | 0.00 | 0.00 | 0.00 | 55 | 1025.1 |
| 20260509001410 | 65 | 178 | 3.0 | 8.0 | 0.00 | 0.00 | 0.00 | 60 | 1025.1 |
| 20260508235917 | 64 | 196 | 4.0 | 10.0 | 0.00 | 0.00 | 0.00 | 61 | 1025.2 |
| 20260508234409 | 62 | 168 | 4.0 | 9.0 | 0.00 | 0.00 | 0.00 | 61 | 1025.2 |
| 20260508232915 | 61 | 155 | 4.0 | 7.0 | 0.00 | 0.00 | 0.00 | 65 | 1025.3 |
| 20260508231424 | 58 | 175 | 3.0 | 6.0 | 0.00 | 0.00 | 0.00 | 69 | 1025.3 |
| 20260508225917 | 55 | 0 | 3.0 | 6.0 | 0.00 | 0.00 | 0.00 | 74 | 1025.4 |
| 20260508224411 | 53 | 169 | 3.0 | 6.0 | 0.00 | 0.00 | 0.00 | 77 | 1025.3 |